createdAt,value
2022-12-26T00:00:27.110Z,4.18
2022-12-26T00:03:15.783Z,6.10
2022-12-26T00:05:58.231Z,5.32
2022-12-26T00:08:46.617Z,6.30
2022-12-26T00:11:29.069Z,6.55
2022-12-26T00:14:20.578Z,7.93
2022-12-26T00:17:06.538Z,8.25
2022-12-26T00:19:55.541Z,5.28
2022-12-26T00:22:50.541Z,6.30
2022-12-26T00:25:36.579Z,7.57
2022-12-26T00:28:24.504Z,6.72
2022-12-26T00:31:07.924Z,6.75
2022-12-26T00:33:57.623Z,8.25
2022-12-26T00:36:39.529Z,8.10
2022-12-26T00:39:27.525Z,7.97
2022-12-26T00:42:09.447Z,8.50
2022-12-26T00:44:57.581Z,7.22
2022-12-26T00:47:39.514Z,8.85
2022-12-26T00:50:22.604Z,7.38
2022-12-26T00:53:12.536Z,8.95
2022-12-26T00:55:55.010Z,10.23
2022-12-26T00:58:43.556Z,14.23
2022-12-26T01:01:25.751Z,17.08
2022-12-26T01:04:14.667Z,19.00
2022-12-26T01:06:57.971Z,13.88
2022-12-26T01:09:46.570Z,10.50
2022-12-26T01:12:28.508Z,15.77
2022-12-26T01:15:17.547Z,16.10
2022-12-26T01:18:00.777Z,17.55
2022-12-26T01:20:49.686Z,18.23
2022-12-26T01:23:46.642Z,16.50
2022-12-26T01:26:28.683Z,14.68
2022-12-26T01:29:16.548Z,11.82
2022-12-26T01:31:58.500Z,12.63
2022-12-26T01:34:46.581Z,10.98
2022-12-26T01:37:28.647Z,9.60
2022-12-26T01:40:19.560Z,10.88
2022-12-26T01:43:01.418Z,11.10
2022-12-26T01:45:50.608Z,8.25
2022-12-26T01:48:34.478Z,7.68
2022-12-26T01:51:23.555Z,9.35
2022-12-26T01:54:39.566Z,7.65
2022-12-26T01:57:17.601Z,8.50
2022-12-26T02:00:06.581Z,6.97
2022-12-26T02:03:19.650Z,7.28
2022-12-26T02:06:08.549Z,8.07
2022-12-26T02:08:51.792Z,6.78
2022-12-26T02:11:44.613Z,5.45
2022-12-26T02:14:27.820Z,6.38
2022-12-26T02:17:15.596Z,7.18
2022-12-26T02:20:04.094Z,5.38
2022-12-26T02:23:26.583Z,5.03
2022-12-26T02:26:42.655Z,4.65
2022-12-26T02:30:15.800Z,4.38
2022-12-26T02:33:23.616Z,3.63
2022-12-26T02:36:27.748Z,4.03
2022-12-26T02:39:45.105Z,4.63
2022-12-26T02:42:39.556Z,5.05
2022-12-26T02:46:04.650Z,3.33
2022-12-26T02:49:11.590Z,7.47
2022-12-26T02:52:19.414Z,2.85
2022-12-26T02:55:30.621Z,3.55
2022-12-26T02:58:39.362Z,3.05
2022-12-26T03:01:54.973Z,3.25
2022-12-26T03:05:05.289Z,3.40
2022-12-26T03:08:06.664Z,2.42
2022-12-26T03:11:13.624Z,2.97
2022-12-26T03:13:58.816Z,2.25
2022-12-26T03:17:04.615Z,2.63
2022-12-26T03:20:02.725Z,2.95
2022-12-26T03:22:56.676Z,3.30
2022-12-26T03:26:05.549Z,4.07
2022-12-26T03:31:35.783Z,5.50
2022-12-26T03:34:26.581Z,3.95
2022-12-26T03:37:47.870Z,4.22
2022-12-26T03:41:08.604Z,4.72
2022-12-26T03:44:30.602Z,5.30
2022-12-26T03:47:37.600Z,3.85
2022-12-26T03:50:55.644Z,3.47
2022-12-26T03:54:02.292Z,3.65
2022-12-26T03:57:12.643Z,2.80
2022-12-26T04:00:16.891Z,3.15
2022-12-26T04:03:24.611Z,2.65
2022-12-26T04:06:41.603Z,3.95
2022-12-26T04:09:47.666Z,3.35
2022-12-26T04:12:55.663Z,3.83
2022-12-26T04:16:01.811Z,3.85
2022-12-26T04:19:14.596Z,3.70
2022-12-26T04:22:23.533Z,2.53
2022-12-26T04:28:56.605Z,3.17
2022-12-26T04:32:00.456Z,3.00
2022-12-26T04:35:14.624Z,3.10
2022-12-26T04:38:16.332Z,2.90
2022-12-26T04:41:25.626Z,4.13
2022-12-26T04:44:11.921Z,3.22
2022-12-26T04:47:01.646Z,3.17
2022-12-26T04:50:08.332Z,3.97
2022-12-26T04:53:08.731Z,4.05
2022-12-26T04:55:57.613Z,4.30
2022-12-26T04:58:40.970Z,3.22
2022-12-26T05:01:45.806Z,2.72
2022-12-26T05:04:57.622Z,1.75
2022-12-26T05:08:03.698Z,1.90
2022-12-26T05:10:45.916Z,1.80
2022-12-26T05:13:33.614Z,3.40
2022-12-26T05:16:40.643Z,2.40
2022-12-26T05:19:46.298Z,2.15
2022-12-26T05:22:44.637Z,3.28
2022-12-26T05:25:47.447Z,1.70
2022-12-26T05:28:51.688Z,1.92
2022-12-26T05:31:36.935Z,2.22
2022-12-26T05:34:27.625Z,2.70
2022-12-26T05:37:09.921Z,2.63
2022-12-26T05:39:58.639Z,1.33
2022-12-26T05:42:40.658Z,2.83
2022-12-26T05:45:29.645Z,1.67
2022-12-26T05:48:19.664Z,2.70
2022-12-26T05:51:05.930Z,4.47
2022-12-26T05:53:54.686Z,1.52
2022-12-26T05:56:36.867Z,3.50
2022-12-26T05:59:25.654Z,2.33
2022-12-26T06:02:12.554Z,1.23
2022-12-26T06:05:03.680Z,2.78
2022-12-26T06:07:45.898Z,1.23
2022-12-26T06:10:35.713Z,2.20
2022-12-26T06:13:24.659Z,1.70
2022-12-26T06:16:07.851Z,1.75
2022-12-26T06:18:56.634Z,1.83
2022-12-26T06:21:40.057Z,1.23
2022-12-26T06:24:28.669Z,1.50
2022-12-26T06:27:10.683Z,0.90
2022-12-26T06:30:06.032Z,3.60
2022-12-26T06:32:48.789Z,1.67
2022-12-26T06:35:37.731Z,1.92
2022-12-26T06:38:29.669Z,1.75
2022-12-26T06:41:19.469Z,1.63
2022-12-26T06:44:10.583Z,1.02
2022-12-26T06:46:56.004Z,1.30
2022-12-26T06:49:43.663Z,1.75
2022-12-26T06:52:25.871Z,2.15
2022-12-26T06:55:15.679Z,2.22
2022-12-26T06:57:59.881Z,4.20
2022-12-26T07:00:48.737Z,2.20
2022-12-26T07:06:16.841Z,1.15
2022-12-26T07:08:45.385Z,2.63
2022-12-26T07:11:15.427Z,1.00
2022-12-26T07:13:44.201Z,3.33
2022-12-26T07:16:15.375Z,2.28
2022-12-26T07:18:44.091Z,1.45
2022-12-26T07:21:15.668Z,1.25
2022-12-26T07:23:44.449Z,1.90
2022-12-26T07:26:12.696Z,3.42
2022-12-26T07:28:41.092Z,1.63
2022-12-26T07:31:09.951Z,3.03
2022-12-26T07:33:38.291Z,1.50
2022-12-26T07:36:08.187Z,1.40
2022-12-26T07:38:38.099Z,1.98
2022-12-26T07:41:20.795Z,3.28
2022-12-26T07:43:49.344Z,1.52
2022-12-26T07:46:17.789Z,1.42
2022-12-26T07:48:46.171Z,3.05
2022-12-26T07:51:15.113Z,1.20
2022-12-26T07:53:46.094Z,1.02
2022-12-26T07:56:14.372Z,4.40
2022-12-26T07:58:42.946Z,2.58
2022-12-26T08:01:11.615Z,1.35
2022-12-26T08:03:40.143Z,3.10
2022-12-26T08:06:11.710Z,1.80
2022-12-26T08:08:44.027Z,3.55
2022-12-26T08:11:19.000Z,3.47
2022-12-26T08:13:47.575Z,2.83
2022-12-26T08:16:16.950Z,4.28
2022-12-26T08:18:45.588Z,2.13
2022-12-26T08:21:14.203Z,3.85
2022-12-26T08:23:42.575Z,3.65
2022-12-26T08:26:20.454Z,1.88
2022-12-26T08:28:51.028Z,3.80
2022-12-26T08:31:21.662Z,2.85
2022-12-26T08:33:50.660Z,2.33
2022-12-26T08:36:19.257Z,3.65
2022-12-26T08:38:47.998Z,3.85
2022-12-26T08:41:18.432Z,2.53
2022-12-26T08:46:39.980Z,3.55
2022-12-26T08:49:08.299Z,3.65
2022-12-26T08:51:36.837Z,3.20
2022-12-26T08:54:06.027Z,2.13
2022-12-26T08:56:34.420Z,1.88
2022-12-26T08:59:04.396Z,3.10
2022-12-26T09:01:34.324Z,2.67
2022-12-26T09:04:06.701Z,4.03
2022-12-26T09:06:37.129Z,4.35
2022-12-26T09:09:06.780Z,4.10
2022-12-26T09:11:35.719Z,2.70
2022-12-26T09:14:06.204Z,2.08
2022-12-26T09:16:49.246Z,2.55
2022-12-26T09:19:18.798Z,2.05
2022-12-26T09:21:48.010Z,5.65
2022-12-26T09:24:18.980Z,3.25
2022-12-26T09:26:47.713Z,3.40
2022-12-26T09:29:17.552Z,3.10
2022-12-26T09:31:45.962Z,3.55
2022-12-26T09:34:14.586Z,3.65
2022-12-26T09:36:42.890Z,2.83
2022-12-26T09:39:12.885Z,4.90
2022-12-26T09:42:01.077Z,3.28
2022-12-26T09:44:43.824Z,3.20
2022-12-26T09:47:24.189Z,4.85
2022-12-26T09:49:57.459Z,3.50
2022-12-26T09:52:35.701Z,3.28
2022-12-26T09:55:12.177Z,3.97
2022-12-26T09:57:43.793Z,6.68
2022-12-26T10:00:19.702Z,3.55
2022-12-26T10:02:53.815Z,1.67
2022-12-26T10:05:23.086Z,4.43
2022-12-26T10:07:56.910Z,1.83
2022-12-26T10:10:30.839Z,3.83
2022-12-26T10:13:06.184Z,6.60
2022-12-26T10:15:44.386Z,2.17
2022-12-26T10:18:26.156Z,4.22
2022-12-26T10:21:16.142Z,6.50
2022-12-26T10:23:47.260Z,3.15
2022-12-26T10:26:20.530Z,3.15
2022-12-26T10:28:53.101Z,5.03
2022-12-26T10:31:29.494Z,3.08
2022-12-26T10:34:04.907Z,2.38
2022-12-26T10:36:40.839Z,3.45
2022-12-26T10:39:19.173Z,3.53
2022-12-26T10:41:50.822Z,3.75
2022-12-26T10:44:25.581Z,6.15
2022-12-26T10:47:14.399Z,6.20
2022-12-26T10:49:46.061Z,2.60
2022-12-26T10:52:17.164Z,3.10
2022-12-26T10:54:49.004Z,5.30
2022-12-26T10:57:17.666Z,2.35
2022-12-26T10:59:50.007Z,7.20
2022-12-26T11:02:27.318Z,3.50
2022-12-26T11:07:53.345Z,2.38
2022-12-26T11:10:24.211Z,7.00
2022-12-26T11:12:54.378Z,2.95
2022-12-26T11:15:32.088Z,2.35
2022-12-26T11:18:17.135Z,6.97
2022-12-26T11:20:46.844Z,4.25
2022-12-26T11:23:27.710Z,4.47
2022-12-26T11:25:58.036Z,3.15
2022-12-26T11:28:32.625Z,3.10
2022-12-26T11:31:02.405Z,3.38
2022-12-26T11:33:36.792Z,3.92
2022-12-26T11:36:17.828Z,4.03
2022-12-26T11:38:54.192Z,3.13
2022-12-26T11:41:40.411Z,4.13
2022-12-26T11:44:18.770Z,2.97
2022-12-26T11:46:51.449Z,2.88
2022-12-26T11:49:25.485Z,3.45
2022-12-26T11:51:59.250Z,4.32
2022-12-26T11:54:32.012Z,2.72
2022-12-26T11:57:20.423Z,4.60
2022-12-26T11:59:50.187Z,3.60
2022-12-26T12:02:29.531Z,5.15
2022-12-26T12:05:13.578Z,4.30
2022-12-26T12:08:38.203Z,2.45
2022-12-26T12:11:26.344Z,4.15
2022-12-26T12:14:49.489Z,2.20
2022-12-26T12:17:30.120Z,2.90
2022-12-26T12:20:18.635Z,4.03
2022-12-26T12:23:17.597Z,3.30
2022-12-26T12:26:01.701Z,2.33
2022-12-26T12:28:47.113Z,3.53
2022-12-26T12:31:25.959Z,2.40
2022-12-26T12:34:05.745Z,3.70
2022-12-26T12:36:44.445Z,2.15
2022-12-26T12:39:17.972Z,2.33
2022-12-26T12:42:18.727Z,4.07
2022-12-26T12:44:59.575Z,5.50
2022-12-26T12:47:39.854Z,7.78
2022-12-26T12:50:18.276Z,6.28
2022-12-26T12:52:55.914Z,5.68
2022-12-26T12:55:42.355Z,2.90
2022-12-26T12:58:28.443Z,5.68
2022-12-26T13:01:14.723Z,5.47
2022-12-26T13:03:52.606Z,5.82
2022-12-26T13:06:26.815Z,8.60
2022-12-26T13:09:00.094Z,2.75
2022-12-26T13:11:37.371Z,3.10
2022-12-26T13:14:11.383Z,6.53
2022-12-26T13:16:43.945Z,8.02
2022-12-26T13:19:20.041Z,7.15
2022-12-26T13:21:51.662Z,4.47
2022-12-26T13:24:30.313Z,8.40
2022-12-26T13:27:03.670Z,4.75
2022-12-26T13:29:40.536Z,6.43
2022-12-26T13:32:20.955Z,3.88
2022-12-26T13:34:50.119Z,7.55
2022-12-26T13:37:52.130Z,7.00
2022-12-26T13:40:25.519Z,8.52
2022-12-26T13:43:15.275Z,9.07
2022-12-26T13:45:54.943Z,5.07
2022-12-26T13:49:03.325Z,8.65
2022-12-26T13:51:58.138Z,7.57
2022-12-26T13:54:29.174Z,6.57
2022-12-26T13:57:39.973Z,6.82
2022-12-26T14:00:20.273Z,3.45
2022-12-26T14:03:20.190Z,6.97
2022-12-26T14:06:07.345Z,4.13
2022-12-26T14:08:51.380Z,6.63
2022-12-26T14:11:35.933Z,5.78
2022-12-26T14:14:17.612Z,4.22
2022-12-26T14:16:55.418Z,7.43
2022-12-26T14:19:40.041Z,8.30
2022-12-26T14:22:16.986Z,6.13
2022-12-26T14:25:00.993Z,8.20
2022-12-26T14:27:38.884Z,3.72
2022-12-26T14:30:21.883Z,7.18
2022-12-26T14:33:07.102Z,5.10
2022-12-26T14:35:41.723Z,6.68
2022-12-26T14:38:25.019Z,5.18
2022-12-26T14:41:02.931Z,7.25
2022-12-26T14:43:36.823Z,8.35
2022-12-26T14:46:31.163Z,4.72
2022-12-26T14:49:01.980Z,5.55
2022-12-26T14:51:37.763Z,6.10
2022-12-26T14:54:39.209Z,4.00
2022-12-26T14:57:44.251Z,4.30
2022-12-26T15:00:27.248Z,6.90
2022-12-26T15:03:34.755Z,2.95
2022-12-26T15:06:32.888Z,7.97
2022-12-26T15:09:22.711Z,3.72
2022-12-26T15:12:26.971Z,5.45
2022-12-26T15:15:32.370Z,6.35
2022-12-26T15:33:42.160Z,5.07
2022-12-26T15:36:23.799Z,7.38
2022-12-26T15:38:59.928Z,3.67
2022-12-26T15:41:39.414Z,6.45
2022-12-26T15:44:29.482Z,7.55
2022-12-26T15:47:11.686Z,5.75
2022-12-26T15:49:56.870Z,4.05
2022-12-26T15:52:37.467Z,5.70
2022-12-26T15:55:24.036Z,3.88
2022-12-26T15:58:01.642Z,7.32
2022-12-26T16:00:33.369Z,4.80
2022-12-26T16:03:21.824Z,4.40
2022-12-26T16:05:59.477Z,5.80
2022-12-26T16:08:50.964Z,8.93
2022-12-26T16:11:22.265Z,6.57
2022-12-26T16:13:54.448Z,7.32
2022-12-26T16:16:27.915Z,4.90
2022-12-26T16:18:56.773Z,6.53
2022-12-26T16:21:43.863Z,7.55
2022-12-26T16:24:14.722Z,4.70
2022-12-26T16:26:46.297Z,4.03
2022-12-26T16:29:19.763Z,10.68
2022-12-26T16:31:49.203Z,8.00
2022-12-26T16:34:20.613Z,4.50
2022-12-26T16:36:51.979Z,6.63
2022-12-26T16:39:24.286Z,3.22
2022-12-26T16:42:05.666Z,8.00
2022-12-26T16:44:38.817Z,4.40
2022-12-26T16:47:15.275Z,5.72
2022-12-26T16:49:45.234Z,4.28
2022-12-26T16:52:34.296Z,9.60
2022-12-26T16:55:25.001Z,8.05
2022-12-26T16:57:56.413Z,5.20
2022-12-26T17:00:26.713Z,6.88
2022-12-26T17:02:58.495Z,2.42
2022-12-26T17:05:31.006Z,4.85
2022-12-26T17:08:04.123Z,2.53
2022-12-26T17:10:35.732Z,6.57
2022-12-26T17:13:06.513Z,7.45
2022-12-26T17:15:37.513Z,3.80
2022-12-26T17:18:31.025Z,7.60
2022-12-26T17:21:18.131Z,4.72
2022-12-26T17:24:03.436Z,8.15
2022-12-26T17:26:32.563Z,8.93
2022-12-26T17:29:01.208Z,10.60
2022-12-26T17:31:35.226Z,12.93
2022-12-26T17:34:08.842Z,6.82
2022-12-26T17:39:28.606Z,6.03
2022-12-26T17:41:59.351Z,6.68
2022-12-26T17:44:39.467Z,19.38
2022-12-26T17:47:16.744Z,12.15
2022-12-26T17:49:47.292Z,9.80
2022-12-26T17:52:18.724Z,4.68
2022-12-26T17:54:50.471Z,8.95
2022-12-26T17:57:22.234Z,5.93
2022-12-26T17:59:51.793Z,8.95
2022-12-26T18:02:20.480Z,10.50
2022-12-26T18:04:50.820Z,8.25
2022-12-26T18:07:27.270Z,9.00
2022-12-26T18:10:01.311Z,6.88
2022-12-26T18:12:30.130Z,8.70
2022-12-26T18:15:02.176Z,8.57
2022-12-26T18:20:02.399Z,6.78
2022-12-26T18:22:30.977Z,8.60
2022-12-26T18:25:01.056Z,4.82
2022-12-26T18:27:32.449Z,11.20
2022-12-26T18:30:01.914Z,13.02
2022-12-26T18:32:31.955Z,4.00
2022-12-26T18:35:00.968Z,6.45
2022-12-26T18:37:33.683Z,4.57
2022-12-26T18:40:03.607Z,8.32
2022-12-26T18:42:32.228Z,7.82
2022-12-26T18:45:02.699Z,12.52
2022-12-26T18:47:31.138Z,4.28
2022-12-26T18:49:59.739Z,10.45
2022-12-26T18:52:28.079Z,8.80
2022-12-26T18:54:56.423Z,6.30
2022-12-26T18:57:26.529Z,7.18
2022-12-26T18:59:55.102Z,7.90
2022-12-26T19:02:23.523Z,6.35
2022-12-26T19:04:52.155Z,8.68
2022-12-26T19:07:21.332Z,8.82
2022-12-26T19:09:55.048Z,6.95
2022-12-26T19:12:23.720Z,5.60
2022-12-26T19:14:54.005Z,6.20
2022-12-26T19:17:22.345Z,7.90
2022-12-26T19:19:50.885Z,8.13
2022-12-26T19:22:19.210Z,7.88
2022-12-26T19:24:48.126Z,5.32
2022-12-26T19:27:16.695Z,8.27
2022-12-26T19:29:45.056Z,8.10
2022-12-26T19:32:14.872Z,9.50
2022-12-26T19:34:43.370Z,12.10
2022-12-26T19:37:11.839Z,6.72
2022-12-26T19:39:40.133Z,3.70
2022-12-26T19:42:08.628Z,6.13
2022-12-26T19:44:37.127Z,5.05
2022-12-26T19:47:12.216Z,3.67
2022-12-26T19:49:43.309Z,5.75
2022-12-26T19:52:12.385Z,9.50
2022-12-26T19:54:40.841Z,10.27
2022-12-26T19:57:09.824Z,6.43
2022-12-26T19:59:38.191Z,4.57
2022-12-26T20:02:06.956Z,5.93
2022-12-26T20:04:35.571Z,6.30
2022-12-26T20:07:05.277Z,7.95
2022-12-26T20:09:33.748Z,7.97
2022-12-26T20:12:02.958Z,8.32
2022-12-26T20:14:32.565Z,5.30
2022-12-26T20:17:05.397Z,5.63
2022-12-26T20:19:34.661Z,8.98
2022-12-26T20:22:04.665Z,9.70
2022-12-26T20:24:33.249Z,6.05
2022-12-26T20:27:02.299Z,5.13
2022-12-26T20:29:31.223Z,5.88
2022-12-26T20:32:00.326Z,8.75
2022-12-26T20:34:29.299Z,12.43
2022-12-26T20:36:57.747Z,6.57
2022-12-26T20:39:27.677Z,4.97
2022-12-26T20:41:56.186Z,7.35
2022-12-26T20:44:25.565Z,5.78
2022-12-26T20:46:54.089Z,6.78
2022-12-26T20:49:24.063Z,6.63
2022-12-26T20:51:52.385Z,9.90
2022-12-26T20:54:20.779Z,8.40
2022-12-26T20:56:51.040Z,7.93
2022-12-26T20:59:20.198Z,7.78
2022-12-26T21:01:49.263Z,5.78
2022-12-26T21:04:19.899Z,7.03
2022-12-26T21:06:49.626Z,9.90
2022-12-26T21:09:18.225Z,6.40
2022-12-26T21:11:46.884Z,8.38
2022-12-26T21:14:20.659Z,5.00
2022-12-26T21:16:51.582Z,5.85
2022-12-26T21:19:20.736Z,4.20
2022-12-26T21:21:51.411Z,13.52
2022-12-26T21:24:25.255Z,7.30
2022-12-26T21:26:54.110Z,6.25
2022-12-26T21:29:26.994Z,5.82
2022-12-26T21:34:26.846Z,5.82
2022-12-26T21:37:13.754Z,21.17
2022-12-26T21:39:42.668Z,4.45
2022-12-26T21:42:11.250Z,5.63
2022-12-26T21:44:40.914Z,8.02
2022-12-26T21:47:09.487Z,6.93
2022-12-26T21:49:38.077Z,4.97
2022-12-26T21:52:07.841Z,7.10
2022-12-26T21:54:53.885Z,5.95
2022-12-26T21:57:23.214Z,8.18
2022-12-26T21:59:59.626Z,6.93
2022-12-26T22:02:47.759Z,12.07
2022-12-26T22:05:17.369Z,5.53
2022-12-26T22:07:45.966Z,7.85
2022-12-26T22:10:34.898Z,7.40
2022-12-26T22:13:04.253Z,10.63
2022-12-26T22:15:51.543Z,5.10
2022-12-26T22:18:20.396Z,9.18
2022-12-26T22:20:48.951Z,7.65
2022-12-26T22:23:17.233Z,6.45
2022-12-26T22:25:52.952Z,4.80
2022-12-26T22:28:23.494Z,6.00
2022-12-26T22:30:53.806Z,3.75
2022-12-26T22:33:22.146Z,6.18
2022-12-26T22:35:50.862Z,7.85
2022-12-26T22:38:19.447Z,4.40
2022-12-26T22:40:56.172Z,5.72
2022-12-26T22:43:25.702Z,8.43
2022-12-26T22:45:55.909Z,5.38
2022-12-26T22:48:25.130Z,5.63
2022-12-26T22:50:55.876Z,3.47
2022-12-26T22:53:25.592Z,9.20
2022-12-26T22:55:58.614Z,8.60
2022-12-26T22:58:27.538Z,6.43
2022-12-26T23:00:57.797Z,7.57
2022-12-26T23:03:27.259Z,8.32
2022-12-26T23:05:58.744Z,6.00
2022-12-26T23:08:29.014Z,10.15
2022-12-26T23:10:59.044Z,5.00
2022-12-26T23:13:28.052Z,6.35
2022-12-26T23:16:06.458Z,3.40
2022-12-26T23:18:59.330Z,4.90
2022-12-26T23:21:45.204Z,6.30
2022-12-26T23:24:23.906Z,2.90
2022-12-26T23:27:19.614Z,6.07
2022-12-26T23:30:06.254Z,5.45
2022-12-26T23:32:39.219Z,4.88
2022-12-26T23:35:11.231Z,6.13
2022-12-26T23:37:44.863Z,3.92
2022-12-26T23:40:16.783Z,5.25
2022-12-26T23:42:45.234Z,5.18
2022-12-26T23:45:14.704Z,6.85
2022-12-26T23:47:45.766Z,3.40
2022-12-26T23:50:15.767Z,6.72
2022-12-26T23:52:44.561Z,4.70
2022-12-26T23:55:13.884Z,3.67
2022-12-26T23:57:42.375Z,5.60
